sensor_id;sensor_type;location;lat;lon;timestamp;pressure;altitude;pressure_sealevel;temperature;humidity
20019;BME280;10170;42.502;26.526;2022-12-07T08:34:52;99843.94;;;10.18;100.00
20019;BME280;10170;42.502;26.526;2022-12-07T08:37:19;99844.38;;;10.28;100.00
20019;BME280;10170;42.502;26.526;2022-12-07T08:39:46;99839.53;;;10.44;100.00
20019;BME280;10170;42.502;26.526;2022-12-07T08:42:12;99841.31;;;10.31;100.00
20019;BME280;10170;42.502;26.526;2022-12-07T08:44:39;99844.78;;;10.31;100.00
20019;BME280;10170;42.502;26.526;2022-12-07T08:47:07;99826.84;;;10.46;100.00
20019;BME280;10170;42.502;26.526;2022-12-07T08:49:39;99834.88;;;10.73;100.00
20019;BME280;10170;42.502;26.526;2022-12-07T08:52:07;99827.34;;;11.28;100.00
20019;BME280;10170;42.502;26.526;2022-12-07T08:54:35;99835.09;;;11.30;100.00
20019;BME280;10170;42.502;26.526;2022-12-07T08:57:03;99828.97;;;11.42;100.00
20019;BME280;10170;42.502;26.526;2022-12-07T08:59:30;99830.19;;;11.66;100.00
20019;BME280;10170;42.502;26.526;2022-12-07T09:01:58;99840.81;;;11.73;100.00
20019;BME280;10170;42.502;26.526;2022-12-07T09:04:25;99834.91;;;12.28;100.00
20019;BME280;10170;42.502;26.526;2022-12-07T09:06:52;99841.75;;;12.11;100.00
20019;BME280;10170;42.502;26.526;2022-12-07T09:09:20;99841.88;;;12.66;100.00
20019;BME280;10170;42.502;26.526;2022-12-07T09:11:46;99835.88;;;12.78;100.00
20019;BME280;10170;42.502;26.526;2022-12-07T09:14:13;99843.94;;;12.64;100.00
20019;BME280;10170;42.502;26.526;2022-12-07T09:16:40;99830.81;;;12.25;100.00
20019;BME280;10170;42.502;26.526;2022-12-07T09:19:07;99813.59;;;12.28;100.00
20019;BME280;10170;42.502;26.526;2022-12-07T09:21:34;99824.13;;;12.10;100.00
20019;BME280;10170;42.502;26.526;2022-12-07T09:24:01;99831.22;;;12.98;100.00
20019;BME280;10170;42.502;26.526;2022-12-07T09:26:28;99827.09;;;12.33;100.00
20019;BME280;10170;42.502;26.526;2022-12-07T09:28:54;99818.47;;;12.68;100.00
20019;BME280;10170;42.502;26.526;2022-12-07T09:31:21;99820.59;;;13.16;100.00
20019;BME280;10170;42.502;26.526;2022-12-07T09:33:58;99818.88;;;12.72;100.00
20019;BME280;10170;42.502;26.526;2022-12-07T09:36:26;99820.38;;;12.17;100.00
20019;BME280;10170;42.502;26.526;2022-12-07T09:38:53;99806.69;;;12.07;100.00
20019;BME280;10170;42.502;26.526;2022-12-07T09:41:22;99807.03;;;12.17;100.00
20019;BME280;10170;42.502;26.526;2022-12-07T09:43:51;99808.88;;;11.53;100.00
20019;BME280;10170;42.502;26.526;2022-12-07T09:46:19;99790.00;;;11.54;100.00
20019;BME280;10170;42.502;26.526;2022-12-07T09:48:47;99799.06;;;11.67;100.00
20019;BME280;10170;42.502;26.526;2022-12-07T09:51:20;99798.25;;;11.46;100.00
20019;BME280;10170;42.502;26.526;2022-12-07T09:53:55;99789.34;;;11.85;100.00
20019;BME280;10170;42.502;26.526;2022-12-07T09:56:23;99794.81;;;12.10;100.00
20019;BME280;10170;42.502;26.526;2022-12-07T09:58:55;99790.09;;;12.05;100.00
20019;BME280;10170;42.502;26.526;2022-12-07T10:01:24;99768.28;;;12.21;100.00
20019;BME280;10170;42.502;26.526;2022-12-07T10:04:21;99781.47;;;12.47;100.00
20019;BME280;10170;42.502;26.526;2022-12-07T10:06:49;99777.53;;;12.56;100.00
20019;BME280;10170;42.502;26.526;2022-12-07T10:09:21;99784.16;;;12.03;100.00
20019;BME280;10170;42.502;26.526;2022-12-07T10:14:32;99779.22;;;12.07;100.00
20019;BME280;10170;42.502;26.526;2022-12-07T10:17:40;99771.50;;;11.92;100.00
20019;BME280;10170;42.502;26.526;2022-12-07T10:23:03;99765.22;;;11.74;100.00
20019;BME280;10170;42.502;26.526;2022-12-07T10:25:34;99774.88;;;11.61;100.00
20019;BME280;10170;42.502;26.526;2022-12-07T10:28:02;99769.97;;;11.52;100.00
20019;BME280;10170;42.502;26.526;2022-12-07T10:33:38;99750.28;;;11.59;100.00
20019;BME280;10170;42.502;26.526;2022-12-07T10:36:26;99776.91;;;11.53;100.00
20019;BME280;10170;42.502;26.526;2022-12-07T10:41:27;99776.69;;;11.68;100.00
20019;BME280;10170;42.502;26.526;2022-12-07T10:43:56;99777.16;;;11.45;100.00
20019;BME280;10170;42.502;26.526;2022-12-07T10:55:10;99766.25;;;11.53;100.00
20019;BME280;10170;42.502;26.526;2022-12-07T11:00:37;99753.78;;;11.40;100.00
20019;BME280;10170;42.502;26.526;2022-12-07T11:03:19;99756.03;;;11.50;100.00
20019;BME280;10170;42.502;26.526;2022-12-07T11:05:56;99756.06;;;11.43;100.00
20019;BME280;10170;42.502;26.526;2022-12-07T11:13:55;99747.84;;;12.09;100.00
20019;BME280;10170;42.502;26.526;2022-12-07T11:21:53;99741.06;;;11.69;100.00
20019;BME280;10170;42.502;26.526;2022-12-07T11:24:48;99722.06;;;11.39;100.00
20019;BME280;10170;42.502;26.526;2022-12-07T11:27:33;99720.56;;;11.62;100.00
20019;BME280;10170;42.502;26.526;2022-12-07T11:33:17;99720.66;;;12.31;100.00
20019;BME280;10170;42.502;26.526;2022-12-07T11:35:59;99724.38;;;12.55;100.00
20019;BME280;10170;42.502;26.526;2022-12-07T11:38:50;99719.84;;;12.55;100.00
20019;BME280;10170;42.502;26.526;2022-12-07T11:41:24;99723.97;;;12.83;100.00
20019;BME280;10170;42.502;26.526;2022-12-07T11:44:06;99726.97;;;12.37;100.00
20019;BME280;10170;42.502;26.526;2022-12-07T11:46:45;99715.34;;;11.94;100.00
20019;BME280;10170;42.502;26.526;2022-12-07T11:51:51;99704.84;;;12.36;100.00
20019;BME280;10170;42.502;26.526;2022-12-07T11:54:25;99703.88;;;12.24;100.00
20019;BME280;10170;42.502;26.526;2022-12-07T11:56:54;99702.09;;;12.67;100.00
20019;BME280;10170;42.502;26.526;2022-12-07T11:59:36;99697.50;;;12.56;100.00
20019;BME280;10170;42.502;26.526;2022-12-07T12:02:36;99698.75;;;12.79;100.00
20019;BME280;10170;42.502;26.526;2022-12-07T12:05:11;99684.97;;;13.00;100.00
20019;BME280;10170;42.502;26.526;2022-12-07T12:07:41;99693.06;;;13.18;100.00
20019;BME280;10170;42.502;26.526;2022-12-07T12:10:42;99689.66;;;12.86;100.00
20019;BME280;10170;42.502;26.526;2022-12-07T12:13:19;99685.59;;;13.02;100.00
20019;BME280;10170;42.502;26.526;2022-12-07T12:21:29;99676.81;;;14.03;100.00
20019;BME280;10170;42.502;26.526;2022-12-07T12:24:00;99678.66;;;14.03;100.00
20019;BME280;10170;42.502;26.526;2022-12-07T12:26:32;99684.94;;;14.26;100.00
20019;BME280;10170;42.502;26.526;2022-12-07T12:29:02;99659.75;;;14.68;100.00
20019;BME280;10170;42.502;26.526;2022-12-07T12:31:38;99686.63;;;14.62;100.00
20019;BME280;10170;42.502;26.526;2022-12-07T12:36:56;99680.56;;;13.84;100.00
20019;BME280;10170;42.502;26.526;2022-12-07T12:39:22;99675.22;;;13.66;100.00
20019;BME280;10170;42.502;26.526;2022-12-07T12:51:44;99658.88;;;13.26;100.00
20019;BME280;10170;42.502;26.526;2022-12-07T12:57:10;99655.84;;;12.98;100.00
20019;BME280;10170;42.502;26.526;2022-12-07T13:02:37;99652.84;;;12.70;100.00
20019;BME280;10170;42.502;26.526;2022-12-07T13:15:45;99645.22;;;12.24;100.00
20019;BME280;10170;42.502;26.526;2022-12-07T13:21:00;99635.66;;;12.17;100.00
20019;BME280;10170;42.502;26.526;2022-12-07T13:28:36;99641.78;;;12.17;100.00
20019;BME280;10170;42.502;26.526;2022-12-07T13:33:54;99642.41;;;11.82;100.00
20019;BME280;10170;42.502;26.526;2022-12-07T13:36:31;99634.25;;;11.77;100.00
20019;BME280;10170;42.502;26.526;2022-12-07T13:41:43;99629.59;;;11.72;100.00
20019;BME280;10170;42.502;26.526;2022-12-07T13:44:13;99638.31;;;11.86;100.00
20019;BME280;10170;42.502;26.526;2022-12-07T13:46:59;99640.91;;;11.92;100.00
20019;BME280;10170;42.502;26.526;2022-12-07T13:49:32;99643.50;;;12.05;100.00
20019;BME280;10170;42.502;26.526;2022-12-07T13:52:23;99639.84;;;12.06;100.00
20019;BME280;10170;42.502;26.526;2022-12-07T13:57:35;99640.97;;;11.86;100.00
20019;BME280;10170;42.502;26.526;2022-12-07T14:00:04;99649.13;;;11.91;100.00
20019;BME280;10170;42.502;26.526;2022-12-07T14:02:33;99653.06;;;11.88;100.00
20019;BME280;10170;42.502;26.526;2022-12-07T14:10:53;99645.41;;;11.98;100.00
20019;BME280;10170;42.502;26.526;2022-12-07T14:18:38;99648.41;;;11.77;100.00
20019;BME280;10170;42.502;26.526;2022-12-07T14:21:16;99650.69;;;11.67;100.00
20019;BME280;10170;42.502;26.526;2022-12-07T14:26:34;99648.44;;;11.64;100.00
20019;BME280;10170;42.502;26.526;2022-12-07T14:31:46;99646.81;;;11.70;100.00
20019;BME280;10170;42.502;26.526;2022-12-07T14:34:13;99652.34;;;11.61;100.00
20019;BME280;10170;42.502;26.526;2022-12-07T14:36:40;99640.72;;;11.56;100.00
20019;BME280;10170;42.502;26.526;2022-12-07T14:39:06;99647.44;;;11.65;100.00
20019;BME280;10170;42.502;26.526;2022-12-07T14:41:39;99651.13;;;11.57;100.00
20019;BME280;10170;42.502;26.526;2022-12-07T14:44:22;99635.97;;;11.58;100.00
20019;BME280;10170;42.502;26.526;2022-12-07T14:46:55;99648.84;;;11.68;100.00
20019;BME280;10170;42.502;26.526;2022-12-07T14:49:41;99650.28;;;11.70;100.00
20019;BME280;10170;42.502;26.526;2022-12-07T14:52:16;99657.06;;;11.66;100.00
20019;BME280;10170;42.502;26.526;2022-12-07T14:55:04;99654.41;;;11.66;100.00
20019;BME280;10170;42.502;26.526;2022-12-07T14:57:31;99651.72;;;11.66;100.00
20019;BME280;10170;42.502;26.526;2022-12-07T14:59:58;99655.78;;;11.75;100.00
20019;BME280;10170;42.502;26.526;2022-12-07T15:02:24;99663.00;;;11.68;100.00
20019;BME280;10170;42.502;26.526;2022-12-07T15:04:51;99658.44;;;11.75;100.00
20019;BME280;10170;42.502;26.526;2022-12-07T15:07:20;99656.41;;;11.71;100.00
20019;BME280;10170;42.502;26.526;2022-12-07T15:09:48;99654.63;;;11.51;100.00
20019;BME280;10170;42.502;26.526;2022-12-07T15:12:15;99645.41;;;11.54;100.00
20019;BME280;10170;42.502;26.526;2022-12-07T15:14:41;99643.41;;;11.43;100.00
20019;BME280;10170;42.502;26.526;2022-12-07T15:17:10;99644.41;;;11.48;100.00
20019;BME280;10170;42.502;26.526;2022-12-07T15:19:55;99647.69;;;11.50;100.00
20019;BME280;10170;42.502;26.526;2022-12-07T15:22:21;99647.47;;;11.45;100.00
20019;BME280;10170;42.502;26.526;2022-12-07T15:24:48;99637.03;;;11.50;100.00
20019;BME280;10170;42.502;26.526;2022-12-07T15:27:15;99645.03;;;11.50;100.00
20019;BME280;10170;42.502;26.526;2022-12-07T15:29:42;99640.72;;;11.56;100.00
20019;BME280;10170;42.502;26.526;2022-12-07T15:32:08;99639.31;;;11.47;100.00
20019;BME280;10170;42.502;26.526;2022-12-07T15:34:35;99650.53;;;11.55;100.00
20019;BME280;10170;42.502;26.526;2022-12-07T15:37:07;99654.81;;;11.63;100.00
20019;BME280;10170;42.502;26.526;2022-12-07T15:39:35;99659.53;;;11.54;100.00
20019;BME280;10170;42.502;26.526;2022-12-07T15:42:02;99667.88;;;11.78;100.00
20019;BME280;10170;42.502;26.526;2022-12-07T15:44:29;99670.31;;;11.79;100.00
20019;BME280;10170;42.502;26.526;2022-12-07T15:47:14;99660.56;;;11.67;100.00
20019;BME280;10170;42.502;26.526;2022-12-07T15:49:42;99668.31;;;11.68;100.00
20019;BME280;10170;42.502;26.526;2022-12-07T15:52:09;99664.41;;;11.64;100.00
20019;BME280;10170;42.502;26.526;2022-12-07T15:54:36;99656.03;;;11.67;100.00
20019;BME280;10170;42.502;26.526;2022-12-07T15:57:02;99659.53;;;11.54;100.00
20019;BME280;10170;42.502;26.526;2022-12-07T15:59:29;99657.09;;;11.53;100.00
20019;BME280;10170;42.502;26.526;2022-12-07T16:01:56;99656.22;;;11.72;100.00
20019;BME280;10170;42.502;26.526;2022-12-07T16:04:23;99650.63;;;11.80;100.00
20019;BME280;10170;42.502;26.526;2022-12-07T16:06:50;99659.63;;;11.86;100.00
20019;BME280;10170;42.502;26.526;2022-12-07T16:09:18;99655.00;;;11.68;100.00
20019;BME280;10170;42.502;26.526;2022-12-07T16:11:45;99653.06;;;11.82;100.00
20019;BME280;10170;42.502;26.526;2022-12-07T16:14:12;99656.91;;;11.92;100.00
20019;BME280;10170;42.502;26.526;2022-12-07T16:16:39;99657.06;;;12.04;100.00
20019;BME280;10170;42.502;26.526;2022-12-07T16:19:07;99656.66;;;12.00;100.00
20019;BME280;10170;42.502;26.526;2022-12-07T16:21:35;99667.84;;;11.84;100.00
20019;BME280;10170;42.502;26.526;2022-12-07T16:24:02;99666.34;;;11.44;100.00
20019;BME280;10170;42.502;26.526;2022-12-07T16:26:29;99664.13;;;11.34;100.00
20019;BME280;10170;42.502;26.526;2022-12-07T16:28:57;99662.88;;;11.37;100.00
20019;BME280;10170;42.502;26.526;2022-12-07T16:31:25;99667.66;;;11.22;100.00
20019;BME280;10170;42.502;26.526;2022-12-07T16:33:54;99662.78;;;11.06;100.00
20019;BME280;10170;42.502;26.526;2022-12-07T16:36:21;99660.72;;;11.08;100.00
20019;BME280;10170;42.502;26.526;2022-12-07T16:39:10;99655.63;;;11.00;100.00
20019;BME280;10170;42.502;26.526;2022-12-07T16:41:37;99649.72;;;10.85;100.00
20019;BME280;10170;42.502;26.526;2022-12-07T16:44:06;99650.34;;;10.80;100.00
20019;BME280;10170;42.502;26.526;2022-12-07T16:46:34;99639.50;;;10.69;100.00
20019;BME280;10170;42.502;26.526;2022-12-07T16:49:03;99651.94;;;11.01;100.00
20019;BME280;10170;42.502;26.526;2022-12-07T16:51:31;99654.63;;;10.88;100.00
20019;BME280;10170;42.502;26.526;2022-12-07T16:53:58;99651.31;;;11.05;100.00
20019;BME280;10170;42.502;26.526;2022-12-07T16:56:25;99636.34;;;11.24;100.00
20019;BME280;10170;42.502;26.526;2022-12-07T16:58:53;99664.69;;;11.49;100.00
20019;BME280;10170;42.502;26.526;2022-12-07T17:01:22;99664.84;;;11.61;100.00
20019;BME280;10170;42.502;26.526;2022-12-07T17:03:49;99664.00;;;11.74;100.00
20019;BME280;10170;42.502;26.526;2022-12-07T17:06:19;99663.34;;;11.78;100.00
20019;BME280;10170;42.502;26.526;2022-12-07T17:08:46;99669.75;;;11.64;100.00
20019;BME280;10170;42.502;26.526;2022-12-07T17:11:22;99676.06;;;11.76;100.00
20019;BME280;10170;42.502;26.526;2022-12-07T17:13:49;99678.75;;;11.70;100.00
20019;BME280;10170;42.502;26.526;2022-12-07T17:16:35;99662.38;;;11.66;100.00
20019;BME280;10170;42.502;26.526;2022-12-07T17:19:06;99668.09;;;11.70;100.00
20019;BME280;10170;42.502;26.526;2022-12-07T17:21:34;99665.97;;;11.34;100.00
20019;BME280;10170;42.502;26.526;2022-12-07T17:24:03;99677.09;;;11.05;100.00
20019;BME280;10170;42.502;26.526;2022-12-07T17:26:31;99673.84;;;10.96;100.00
20019;BME280;10170;42.502;26.526;2022-12-07T17:29:05;99668.94;;;11.00;100.00
20019;BME280;10170;42.502;26.526;2022-12-07T17:31:34;99674.22;;;11.06;100.00
20019;BME280;10170;42.502;26.526;2022-12-07T17:34:02;99673.81;;;11.16;100.00
20019;BME280;10170;42.502;26.526;2022-12-07T17:36:31;99679.78;;;10.92;100.00
20019;BME280;10170;42.502;26.526;2022-12-07T17:38:58;99680.63;;;10.86;100.00
20019;BME280;10170;42.502;26.526;2022-12-07T17:41:27;99683.47;;;10.78;100.00
20019;BME280;10170;42.502;26.526;2022-12-07T17:44:15;99685.13;;;10.72;100.00
20019;BME280;10170;42.502;26.526;2022-12-07T17:46:43;99680.22;;;10.69;100.00
20019;BME280;10170;42.502;26.526;2022-12-07T17:49:11;99682.06;;;10.75;100.00
20019;BME280;10170;42.502;26.526;2022-12-07T17:51:39;99682.47;;;10.66;100.00
20019;BME280;10170;42.502;26.526;2022-12-07T17:54:24;99676.75;;;10.62;100.00
20019;BME280;10170;42.502;26.526;2022-12-07T17:56:51;99672.81;;;10.97;100.00
20019;BME280;10170;42.502;26.526;2022-12-07T17:59:18;99671.56;;;11.13;100.00
20019;BME280;10170;42.502;26.526;2022-12-07T18:01:45;99678.53;;;11.07;100.00
20019;BME280;10170;42.502;26.526;2022-12-07T18:04:12;99674.00;;;11.27;100.00
20019;BME280;10170;42.502;26.526;2022-12-07T18:06:39;99678.13;;;11.10;100.00
20019;BME280;10170;42.502;26.526;2022-12-07T18:09:06;99671.16;;;11.03;100.00
20019;BME280;10170;42.502;26.526;2022-12-07T18:11:33;99677.53;;;10.89;100.00
20019;BME280;10170;42.502;26.526;2022-12-07T18:14:00;99679.63;;;10.74;100.00
20019;BME280;10170;42.502;26.526;2022-12-07T18:16:30;99676.75;;;10.69;100.00
20019;BME280;10170;42.502;26.526;2022-12-07T18:18:59;99682.47;;;10.79;100.00
20019;BME280;10170;42.502;26.526;2022-12-07T18:21:27;99672.03;;;10.84;100.00
20019;BME280;10170;42.502;26.526;2022-12-07T18:23:57;99679.19;;;10.77;100.00
20019;BME280;10170;42.502;26.526;2022-12-07T18:26:25;99683.28;;;10.73;100.00
20019;BME280;10170;42.502;26.526;2022-12-07T18:28:51;99676.34;;;10.58;100.00
20019;BME280;10170;42.502;26.526;2022-12-07T18:31:18;99658.75;;;10.51;100.00
20019;BME280;10170;42.502;26.526;2022-12-07T18:33:48;99677.56;;;10.69;100.00
20019;BME280;10170;42.502;26.526;2022-12-07T18:36:16;99674.03;;;11.01;100.00
20019;BME280;10170;42.502;26.526;2022-12-07T18:38:43;99667.44;;;11.17;100.00
20019;BME280;10170;42.502;26.526;2022-12-07T18:41:12;99680.72;;;11.30;100.00
20019;BME280;10170;42.502;26.526;2022-12-07T18:43:39;99681.16;;;11.27;100.00
20019;BME280;10170;42.502;26.526;2022-12-07T18:48:38;99689.66;;;11.55;100.00
20019;BME280;10170;42.502;26.526;2022-12-07T18:51:06;99690.69;;;11.54;100.00
20019;BME280;10170;42.502;26.526;2022-12-07T18:53:34;99683.06;;;11.64;100.00
20019;BME280;10170;42.502;26.526;2022-12-07T18:56:07;99683.09;;;11.51;100.00
20019;BME280;10170;42.502;26.526;2022-12-07T18:58:35;99684.84;;;11.19;100.00
20019;BME280;10170;42.502;26.526;2022-12-07T19:01:02;99675.28;;;11.05;100.00
20019;BME280;10170;42.502;26.526;2022-12-07T19:03:30;99674.28;;;10.80;100.00
20019;BME280;10170;42.502;26.526;2022-12-07T19:06:05;99667.94;;;10.81;100.00
20019;BME280;10170;42.502;26.526;2022-12-07T19:08:32;99658.31;;;10.80;100.00
20019;BME280;10170;42.502;26.526;2022-12-07T19:11:00;99665.69;;;10.78;100.00
20019;BME280;10170;42.502;26.526;2022-12-07T19:13:50;99666.25;;;11.06;100.00
20019;BME280;10170;42.502;26.526;2022-12-07T19:16:23;99672.19;;;11.08;100.00
20019;BME280;10170;42.502;26.526;2022-12-07T19:18:50;99669.97;;;10.99;100.00
20019;BME280;10170;42.502;26.526;2022-12-07T19:21:18;99669.94;;;11.05;100.00
20019;BME280;10170;42.502;26.526;2022-12-07T19:23:44;99673.81;;;11.03;100.00
20019;BME280;10170;42.502;26.526;2022-12-07T19:26:11;99674.81;;;11.21;100.00
20019;BME280;10170;42.502;26.526;2022-12-07T19:28:38;99675.81;;;11.27;100.00
20019;BME280;10170;42.502;26.526;2022-12-07T19:31:09;99680.00;;;10.90;100.00
20019;BME280;10170;42.502;26.526;2022-12-07T19:33:39;99663.41;;;10.88;100.00
20019;BME280;10170;42.502;26.526;2022-12-07T19:36:06;99672.44;;;10.81;100.00
20019;BME280;10170;42.502;26.526;2022-12-07T19:38:34;99670.56;;;11.01;100.00
20019;BME280;10170;42.502;26.526;2022-12-07T19:41:11;99673.16;;;11.20;100.00
20019;BME280;10170;42.502;26.526;2022-12-07T19:44:01;99674.56;;;11.29;100.00
20019;BME280;10170;42.502;26.526;2022-12-07T19:46:30;99677.41;;;11.41;100.00
20019;BME280;10170;42.502;26.526;2022-12-07T19:48:57;99673.06;;;11.53;100.00
20019;BME280;10170;42.502;26.526;2022-12-07T19:51:27;99671.00;;;11.55;100.00
20019;BME280;10170;42.502;26.526;2022-12-07T19:53:58;99680.25;;;11.52;100.00
20019;BME280;10170;42.502;26.526;2022-12-07T19:56:27;99689.72;;;11.35;100.00
20019;BME280;10170;42.502;26.526;2022-12-07T19:58:54;99687.31;;;11.27;100.00
20019;BME280;10170;42.502;26.526;2022-12-07T20:01:21;99681.06;;;11.53;100.00
20019;BME280;10170;42.502;26.526;2022-12-07T20:03:48;99681.66;;;11.61;100.00
20019;BME280;10170;42.502;26.526;2022-12-07T20:06:17;99686.16;;;11.68;100.00
20019;BME280;10170;42.502;26.526;2022-12-07T20:08:46;99684.75;;;11.65;100.00
20019;BME280;10170;42.502;26.526;2022-12-07T20:11:15;99670.88;;;11.43;100.00
20019;BME280;10170;42.502;26.526;2022-12-07T20:14:00;99692.50;;;11.60;100.00
20019;BME280;10170;42.502;26.526;2022-12-07T20:16:27;99680.66;;;11.56;100.00
20019;BME280;10170;42.502;26.526;2022-12-07T20:18:54;99676.59;;;11.47;100.00
20019;BME280;10170;42.502;26.526;2022-12-07T20:21:23;99683.34;;;11.43;100.00
20019;BME280;10170;42.502;26.526;2022-12-07T20:23:51;99690.09;;;11.45;100.00
20019;BME280;10170;42.502;26.526;2022-12-07T20:26:18;99684.78;;;11.39;100.00
20019;BME280;10170;42.502;26.526;2022-12-07T20:28:45;99666.03;;;11.14;100.00
20019;BME280;10170;42.502;26.526;2022-12-07T20:31:16;99683.81;;;11.27;100.00
20019;BME280;10170;42.502;26.526;2022-12-07T20:33:43;99680.72;;;11.30;100.00
20019;BME280;10170;42.502;26.526;2022-12-07T20:36:15;99691.22;;;11.18;100.00
20019;BME280;10170;42.502;26.526;2022-12-07T20:38:43;99691.34;;;11.43;100.00
20019;BME280;10170;42.502;26.526;2022-12-07T20:41:12;99691.72;;;11.46;100.00
20019;BME280;10170;42.502;26.526;2022-12-07T20:43:58;99684.59;;;11.34;100.00
20019;BME280;10170;42.502;26.526;2022-12-07T20:46:25;99700.78;;;11.32;100.00
20019;BME280;10170;42.502;26.526;2022-12-07T20:48:52;99697.50;;;11.37;100.00
20019;BME280;10170;42.502;26.526;2022-12-07T20:51:19;99698.78;;;11.08;100.00
20019;BME280;10170;42.502;26.526;2022-12-07T20:53:46;99700.00;;;11.19;100.00
20019;BME280;10170;42.502;26.526;2022-12-07T20:56:21;99693.06;;;11.18;100.00
20019;BME280;10170;42.502;26.526;2022-12-07T20:58:48;99693.84;;;11.25;100.00
20019;BME280;10170;42.502;26.526;2022-12-07T21:01:16;99685.50;;;11.15;100.00
20019;BME280;10170;42.502;26.526;2022-12-07T21:03:43;99698.41;;;10.92;100.00
20019;BME280;10170;42.502;26.526;2022-12-07T21:06:14;99702.06;;;11.10;100.00
20019;BME280;10170;42.502;26.526;2022-12-07T21:08:45;99697.75;;;11.16;100.00
20019;BME280;10170;42.502;26.526;2022-12-07T21:11:13;99690.41;;;11.05;100.00
20019;BME280;10170;42.502;26.526;2022-12-07T21:13:41;99706.59;;;11.03;100.00
20019;BME280;10170;42.502;26.526;2022-12-07T21:18:39;99708.19;;;11.24;100.00
20019;BME280;10170;42.502;26.526;2022-12-07T21:21:07;99706.16;;;11.19;100.00
20019;BME280;10170;42.502;26.526;2022-12-07T21:23:35;99705.94;;;11.21;100.00
20019;BME280;10170;42.502;26.526;2022-12-07T21:26:13;99702.44;;;11.20;100.00
20019;BME280;10170;42.502;26.526;2022-12-07T21:28:40;99694.75;;;10.86;100.00
20019;BME280;10170;42.502;26.526;2022-12-07T21:31:07;99707.78;;;11.14;100.00
20019;BME280;10170;42.502;26.526;2022-12-07T21:33:39;99691.22;;;11.18;100.00
20019;BME280;10170;42.502;26.526;2022-12-07T21:36:06;99708.84;;;11.00;100.00
20019;BME280;10170;42.502;26.526;2022-12-07T21:38:35;99711.94;;;10.77;100.00
20019;BME280;10170;42.502;26.526;2022-12-07T21:41:22;99708.44;;;10.90;100.00
20019;BME280;10170;42.502;26.526;2022-12-07T21:43:50;99706.16;;;11.06;100.00
20019;BME280;10170;42.502;26.526;2022-12-07T21:46:19;99703.31;;;10.95;100.00
20019;BME280;10170;42.502;26.526;2022-12-07T21:48:54;99704.16;;;10.95;100.00
20019;BME280;10170;42.502;26.526;2022-12-07T21:51:22;99703.13;;;10.96;100.00
20019;BME280;10170;42.502;26.526;2022-12-07T21:53:51;99687.19;;;10.63;100.00
20019;BME280;10170;42.502;26.526;2022-12-07T21:56:23;99708.25;;;10.72;100.00
20019;BME280;10170;42.502;26.526;2022-12-07T21:58:52;99694.72;;;10.80;100.00
20019;BME280;10170;42.502;26.526;2022-12-07T22:01:21;99703.34;;;10.62;100.00
20019;BME280;10170;42.502;26.526;2022-12-07T22:03:49;99695.56;;;10.54;100.00
20019;BME280;10170;42.502;26.526;2022-12-07T22:06:19;99694.56;;;10.68;100.00
20019;BME280;10170;42.502;26.526;2022-12-07T22:08:46;99684.53;;;10.63;100.00
20019;BME280;10170;42.502;26.526;2022-12-07T22:11:13;99696.78;;;10.84;100.00
20019;BME280;10170;42.502;26.526;2022-12-07T22:13:41;99701.50;;;10.95;100.00
20019;BME280;10170;42.502;26.526;2022-12-07T22:16:35;99701.28;;;10.84;100.00
20019;BME280;10170;42.502;26.526;2022-12-07T22:19:02;99694.72;;;10.80;100.00
20019;BME280;10170;42.502;26.526;2022-12-07T22:21:29;99694.72;;;10.67;100.00
20019;BME280;10170;42.502;26.526;2022-12-07T22:23:56;99695.56;;;10.67;100.00
20019;BME280;10170;42.502;26.526;2022-12-07T22:26:23;99694.31;;;10.63;100.00
20019;BME280;10170;42.502;26.526;2022-12-07T22:28:50;99696.38;;;10.68;100.00
20019;BME280;10170;42.502;26.526;2022-12-07T22:31:18;99694.75;;;10.73;100.00
20019;BME280;10170;42.502;26.526;2022-12-07T22:33:45;99705.19;;;10.75;100.00
20019;BME280;10170;42.502;26.526;2022-12-07T22:36:12;99696.38;;;10.87;100.00
20019;BME280;10170;42.502;26.526;2022-12-07T22:38:40;99681.47;;;10.73;100.00
20019;BME280;10170;42.502;26.526;2022-12-07T22:41:09;99698.22;;;10.87;100.00
20019;BME280;10170;42.502;26.526;2022-12-07T22:43:37;99683.28;;;10.79;100.00
20019;BME280;10170;42.502;26.526;2022-12-07T22:46:04;99691.84;;;11.01;100.00
20019;BME280;10170;42.502;26.526;2022-12-07T22:48:31;99701.88;;;10.92;100.00
20019;BME280;10170;42.502;26.526;2022-12-07T22:50:58;99707.00;;;10.94;100.00
20019;BME280;10170;42.502;26.526;2022-12-07T22:53:24;99699.81;;;11.01;100.00
20019;BME280;10170;42.502;26.526;2022-12-07T22:55:51;99697.16;;;11.01;100.00
20019;BME280;10170;42.502;26.526;2022-12-07T22:58:18;99693.06;;;11.05;100.00
20019;BME280;10170;42.502;26.526;2022-12-07T23:00:45;99694.09;;;11.10;100.00
20019;BME280;10170;42.502;26.526;2022-12-07T23:03:13;99694.47;;;11.14;100.00
20019;BME280;10170;42.502;26.526;2022-12-07T23:05:42;99687.13;;;11.03;100.00
20019;BME280;10170;42.502;26.526;2022-12-07T23:08:09;99670.78;;;10.93;100.00
20019;BME280;10170;42.502;26.526;2022-12-07T23:10:46;99694.50;;;11.01;100.00
20019;BME280;10170;42.502;26.526;2022-12-07T23:13:15;99687.97;;;11.03;100.00
20019;BME280;10170;42.502;26.526;2022-12-07T23:18:33;99693.69;;;10.94;100.00
20019;BME280;10170;42.502;26.526;2022-12-07T23:21:00;99696.56;;;10.92;100.00
20019;BME280;10170;42.502;26.526;2022-12-07T23:23:27;99700.03;;;11.06;100.00
20019;BME280;10170;42.502;26.526;2022-12-07T23:25:54;99689.78;;;11.03;100.00